Latest Weather Observations for Hartz Mountains

IDT60801

Issued at 11:05 pm EDT Tuesday 21 October 2014 (issued every 30 minutes, with the page automatically refreshed every 10 minutes)

About weather observations | Map of weather stations | Latest weather observations for TAS | Other Formats
Station Details ID: 094191 Name: HARTZ MOUNTAIN (KEOGHS PIMPLE) Lat: -43.20 Lon: 146.77 Height: 831.0 m
Data from the previous 72 hours. | See also: Recent months at Hartz Mountains
Date/Time
EDT
Temp
°C
App
Temp
°C
Dew
Point
Rel
Hum
%
Delta-T
°C
Wind Press
QNH
hPa
Press
MSL
hPa
Rain
since 9 am
mm
Dir
 
Spd
km/h
Gust
km/h
Spd
kts
Gust
kts
21/11:00pm 10.0 6.4 3.1 62 3.1 NNW 11 19 6 10 - - 0.0
21/10:30pm 9.4 6.9 4.0 69 2.5 N 6 9 3 5 - - 0.0
21/10:00pm 9.8 7.8 4.4 69 2.5 ENE 4 7 2 4 - - 0.0
21/09:30pm 9.9 8.3 4.5 69 2.5 ESE 2 6 1 3 - - 0.0
21/09:00pm 9.7 7.2 4.9 72 2.3 ESE 7 9 4 5 - - 0.0
21/08:30pm 9.3 6.4 4.9 74 2.1 E 9 11 5 6 - - 0.0
21/08:00pm 10.3 8.1 5.1 70 2.5 ESE 6 7 3 4 - - 0.0
21/07:30pm 10.6 8.3 5.6 71 2.4 SE 7 7 4 4 - - 0.0
21/07:00pm 12.2 9.6 6.0 66 3.1 ESE 9 11 5 6 - - 0.0
21/06:30pm 13.2 10.3 6.3 63 3.4 ESE 11 13 6 7 - - 0.0
21/06:00pm 14.1 11.5 6.2 59 4.0 ESE 9 13 5 7 - - 0.0
21/05:30pm 15.2 12.7 4.9 50 5.1 NE 7 9 4 5 - - 0.0
21/05:00pm 15.2 12.3 4.9 50 5.1 NE 9 15 5 8 - - 0.0
21/04:30pm 15.0 11.8 5.0 51 4.9 N 11 17 6 9 - - 0.0
21/04:00pm 14.8 11.1 4.2 49 5.1 N 13 20 7 11 - - 0.0
21/03:30pm 15.6 12.2 4.0 46 5.6 N 11 17 6 9 - - 0.0
21/03:00pm 15.4 12.4 3.9 46 5.6 N 9 19 5 10 - - 0.0
21/02:30pm 14.8 11.3 3.6 47 5.3 NNE 11 19 6 10 - - 0.0
21/02:00pm 14.8 11.1 6.4 57 4.2 NNE 15 20 8 11 - - 0.0
21/01:30pm 13.3 9.4 5.2 58 4.0 NNE 15 24 8 13 - - 0.0
21/01:00pm 13.4 10.8 4.0 53 4.5 NE 7 15 4 8 - - 0.0
21/12:30pm 12.4 8.8 4.9 60 3.6 NNE 13 20 7 11 - - 0.0
21/12:00pm 13.7 11.3 5.1 56 4.2 NNE 7 15 4 8 - - 0.0
21/11:30am 12.5 9.5 5.9 64 3.3 NNE 11 20 6 11 - - 0.0
21/11:00am 11.9 9.0 6.4 69 2.7 ENE 11 19 6 10 - - 0.0
21/10:30am 10.9 7.8 5.4 69 2.6 ENE 11 17 6 9 - - 0.0
21/10:00am 10.5 7.3 5.3 70 2.5 ENE 11 20 6 11 - - 0.0
21/09:30am 9.6 6.3 4.6 71 2.3 ENE 11 15 6 8 - - 0.0
21/09:00am 8.7 5.7 3.9 72 2.2 ENE 9 13 5 7 - - 0.2
21/08:30am 8.0 4.7 2.7 69 2.3 E 9 11 5 6 - - 0.2
21/08:00am 7.4 5.2 3.5 76 1.7 ENE 4 9 2 5 - - 0.2
21/07:30am 6.2 4.2 2.3 76 1.7 SSE 2 7 1 4 - - 0.2
21/07:00am 4.5 -0.4 2.0 84 1.1 WSW 17 24 9 13 - - 0.2
21/06:30am 3.6 -1.7 1.6 87 0.8 WSW 19 26 10 14 - - 0.2
21/06:00am 3.8 -0.4 1.8 87 0.8 WSW 13 20 7 11 - - 0.2
21/05:30am 3.4 0.3 1.6 88 0.7 NNW 7 15 4 8 - - 0.2
21/05:00am 2.6 -2.0 1.3 91 0.5 W 15 22 8 12 - - 0.2
21/04:30am 2.1 -2.2 1.2 94 0.4 WNW 13 20 7 11 - - 0.2
21/04:00am 1.6 -3.4 1.3 98 0.1 WNW 17 20 9 11 - - 0.2
21/03:30am 1.3 -3.4 1.0 98 0.1 NW 15 17 8 9 - - 0.2
21/03:00am 1.4 -2.5 1.1 98 0.1 WNW 11 13 6 7 - - 0.2
21/02:30am 1.5 -1.6 1.1 97 0.2 WNW 7 9 4 5 - - 0.2
21/02:00am 1.9 -0.6 1.3 96 0.2 WNW 4 7 2 4 - - 0.2
21/01:30am 2.3 -0.7 1.9 97 0.2 N 7 11 4 6 - - 0.2
21/01:00am 2.6 -0.7 2.2 97 0.2 NE 9 13 5 7 - - 0.2
21/12:30am 2.6 -0.7 2.2 97 0.2 NE 9 13 5 7 - - 0.2
21/12:00am 2.6 -0.8 2.0 96 0.2 ENE 9 15 5 8 - - 0.2
 
Date/Time
EDT
Temp
°C
App
Temp
°C
Dew
Point
Rel
Hum
%
Delta-T
°C
Wind Press
QNH
hPa
Press
MSL
hPa
Rain
since 9 am
mm
Dir
 
Spd
km/h
Gust
km/h
Spd
kts
Gust
kts
20/11:30pm 2.7 -0.7 2.1 96 0.2 ENE 9 15 5 8 - - 0.2
20/11:00pm 2.7 -0.7 2.1 96 0.2 ENE 9 15 5 8 - - 0.2
20/10:30pm 2.7 -1.1 2.0 95 0.3 E 11 17 6 9 - - 0.2
20/10:00pm 2.9 -0.9 2.0 94 0.4 ENE 11 15 6 8 - - 0.2
20/09:30pm 2.9 -0.1 1.9 93 0.4 NE 7 11 4 6 - - 0.2
20/09:00pm 3.1 0.1 2.2 94 0.4 E 7 9 4 5 - - 0.2
20/08:30pm 3.3 0.0 2.3 93 0.4 ENE 9 9 5 5 - - 0.2
20/08:00pm 3.5 0.5 2.3 92 0.5 E 7 11 4 6 - - 0.2
20/07:30pm 3.9 0.6 2.6 91 0.6 ESE 9 13 5 7 - - 0.2
20/07:00pm 4.2 0.2 2.6 89 0.7 ESE 13 17 7 9 - - 0.2
20/06:30pm 4.9 1.3 2.8 86 0.9 ESE 11 19 6 10 - - 0.2
20/06:00pm 5.8 2.3 3.3 84 1.1 ESE 11 15 6 8 - - 0.2
20/05:30pm 6.5 3.3 2.8 77 1.6 E 9 15 5 8 - - 0.2
20/05:00pm 7.6 4.0 3.1 73 2.0 E 11 15 6 8 - - 0.2
20/04:30pm 8.9 5.9 4.1 72 2.2 NNE 9 15 5 8 - - 0.2
20/04:00pm 9.5 6.2 2.4 61 3.2 NNW 9 17 5 9 - - 0.2
20/03:30pm 11.5 7.3 3.8 59 3.6 NNW 15 19 8 10 - - 0.2
20/03:28pm 12.1 8.4 4.3 59 3.7 NNW 13 19 7 10 - - 0.2
20/03:00pm 7.0 3.7 -0.2 60 2.9 SW 7 17 4 9 - - 0.2
20/02:30pm 9.4 5.6 4.0 69 2.5 W 13 19 7 10 - - 0.2
20/02:00pm 9.5 5.1 2.8 63 3.0 W 15 20 8 11 - - 0.2
20/01:30pm 7.4 3.1 1.3 65 2.6 SW 13 20 7 11 - - 0.2
20/01:00pm 6.4 2.1 0.7 67 2.4 WSW 13 20 7 11 - - 0.2
20/12:30pm 5.2 0.2 1.1 75 1.7 WSW 17 22 9 12 - - 0.2
20/12:00pm 6.4 3.2 3.2 80 1.4 S 9 15 5 8 - - 0.0
20/11:30am 5.9 1.8 2.0 76 1.7 W 13 22 7 12 - - 0.0
20/11:00am 3.5 -1.7 0.0 78 1.4 WSW 17 22 9 12 - - 0.0
20/10:30am 4.3 0.8 1.5 82 1.2 WSW 9 13 5 7 - - 0.0
20/10:00am 3.0 -0.8 -1.0 75 1.5 W 9 15 5 8 - - 0.0
20/09:30am 2.4 -3.4 -1.2 77 1.4 S 19 24 10 13 - - 0.0
20/09:00am 1.5 -3.0 -0.6 86 0.8 SW 13 20 7 11 - - 7.4
20/08:30am 1.3 -2.1 -0.6 87 0.7 SW 7 13 4 7 - - 7.4
20/08:00am 0.8 -2.7 -1.6 84 0.9 SSW 7 19 4 10 - - 7.4
20/07:30am 0.3 -3.0 -1.3 89 0.6 SSW 6 11 3 6 - - 7.4
20/07:00am 0.1 -3.5 -2.1 85 0.8 S 7 13 4 7 - - 7.4
20/06:30am -0.5 -4.8 -1.9 90 0.5 SW 11 17 6 9 - - 7.4
20/06:00am -0.7 -5.7 -1.4 95 0.2 WSW 15 24 8 13 - - 7.4
20/05:30am -0.6 -5.3 -1.6 93 0.3 SW 13 20 7 11 - - 7.4
20/05:00am -0.5 -6.5 -1.8 91 0.4 WSW 20 30 11 16 - - 7.4
20/04:30am -0.1 -7.0 -2.8 82 1.0 WSW 24 33 13 18 - - 7.4
20/04:00am -0.4 -8.1 -3.3 81 1.0 WSW 28 50 15 27 - - 7.4
20/03:50am -0.2 -8.0 -3.6 78 1.2 WSW 28 54 15 29 - - 7.4
20/03:30am -0.5 -6.5 -3.2 82 0.9 WSW 19 35 10 19 - - 7.4
20/03:00am -0.1 -8.5 -2.5 84 0.9 SW 32 50 17 27 - - 7.4
20/02:34am -0.1 -9.0 -2.3 85 0.8 WSW 35 54 19 29 - - 7.4
20/02:30am 0.0 -9.4 -2.5 83 0.9 WSW 37 50 20 27 - - 7.4
20/02:15am -0.2 -7.8 -2.3 86 0.7 WSW 28 46 15 25 - - 7.4
20/02:00am -0.4 -6.8 -1.8 90 0.5 W 22 33 12 18 - - 7.4
20/01:30am -0.1 -6.5 -1.7 89 0.6 WSW 22 41 12 22 - - 7.4
20/01:09am -0.4 -8.8 -2.1 88 0.6 WSW 32 50 17 27 - - 7.4
20/01:00am -0.2 -9.5 -2.4 85 0.8 WSW 37 50 20 27 - - 7.4
20/12:30am 0.0 -9.7 -2.1 86 0.8 WSW 39 57 21 31 - - 7.4
20/12:00am 0.0 -10.9 -1.6 89 0.6 WSW 46 57 25 31 - - 7.4
 
Date/Time
EDT
Temp
°C
App
Temp
°C
Dew
Point
Rel
Hum
%
Delta-T
°C
Wind Press
QNH
hPa
Press
MSL
hPa
Rain
since 9 am
mm
Dir
 
Spd
km/h
Gust
km/h
Spd
kts
Gust
kts
19/11:30pm -0.2 -11.5 -1.6 90 0.5 SW 48 69 26 37 - - 7.4
19/11:00pm 0.1 -10.8 -1.2 91 0.5 WSW 46 67 25 36 - - 7.4
19/10:30pm 0.2 -10.1 -0.9 92 0.4 SW 43 69 23 37 - - 7.4
19/10:09pm 0.6 -9.7 -1.2 88 0.7 SW 43 61 23 33 - - 7.4
19/10:00pm 0.6 -9.7 -1.2 88 0.7 SW 43 56 23 30 - - 7.4
19/09:38pm 0.8 -9.7 -1.1 87 0.7 WSW 44 63 24 34 - - 7.4
19/09:30pm 0.8 -8.6 -0.3 92 0.4 SW 39 52 21 28 - - 7.4
19/09:08pm 0.9 -7.8 -0.4 91 0.5 WSW 35 54 19 29 - - 7.4
19/09:00pm 0.9 -8.5 -0.2 92 0.4 WSW 39 52 21 28 - - 7.4
19/08:52pm 0.8 -9.0 -0.3 92 0.4 WSW 41 59 22 32 - - 7.4
19/08:30pm 0.7 -10.5 -0.4 92 0.4 WSW 48 65 26 35 - - 7.4
19/08:00pm 0.9 -8.5 0.2 95 0.3 SW 39 57 21 31 - - 7.4
19/07:39pm 0.8 -7.8 0.4 97 0.2 SW 35 54 19 29 - - 7.4
19/07:30pm 1.0 -7.9 0.6 97 0.2 WSW 37 52 20 28 - - 7.2
19/07:05pm 1.6 -6.8 1.3 98 0.1 WSW 35 57 19 31 - - 7.2
19/07:00pm 1.8 -6.6 1.5 98 0.1 WSW 35 50 19 27 - - 7.2
19/06:30pm 1.8 -6.0 1.7 99 0.0 WSW 32 52 17 28 - - 7.2
19/06:04pm 1.8 -6.6 1.5 98 0.1 WSW 35 56 19 30 - - 7.2
19/06:00pm 2.1 -5.8 2.0 99 0.0 WSW 33 46 18 25 - - 6.8
19/05:30pm 2.6 -5.3 2.3 98 0.1 WSW 33 44 18 24 - - 6.2
19/05:00pm 3.0 -4.3 2.7 98 0.1 WSW 30 37 16 20 - - 5.4
19/04:30pm 3.3 -4.5 3.0 98 0.1 WSW 33 48 18 26 - - 4.6
19/04:00pm 3.4 -3.8 3.0 97 0.2 WSW 30 46 16 25 - - 3.6
19/03:30pm 3.6 -3.2 3.3 98 0.1 WSW 28 39 15 21 - - 2.8
19/03:00pm 3.5 -4.6 3.1 97 0.2 WSW 35 48 19 26 - - 2.4
19/02:30pm 3.6 -5.7 3.2 97 0.2 WSW 41 56 22 30 - - 1.8
19/02:00pm 4.6 -3.7 4.0 96 0.3 WSW 37 56 20 30 - - 1.2
19/01:52pm 4.9 -3.4 4.2 95 0.3 WSW 37 56 20 30 - - 1.0
19/01:35pm 5.6 -1.0 4.4 92 0.5 W 28 46 15 25 - - 0.4
19/01:30pm 5.9 -0.3 4.5 91 0.6 W 26 43 14 23 - - 0.0
19/01:00pm 6.2 -0.7 4.8 91 0.6 W 30 48 16 26 - - 0.0
19/12:31pm 5.6 -1.1 3.9 89 0.8 W 28 54 15 29 - - 0.0
19/12:30pm 5.7 -0.5 4.5 92 0.5 W 26 54 14 29 - - 0.0
19/12:19pm 6.1 -0.4 4.9 92 0.5 W 28 50 15 27 - - 0.0
19/12:00pm 6.4 0.4 5.4 93 0.5 W 26 48 14 26 - - 0.0
19/11:47am 6.6 0.3 5.6 93 0.5 W 28 48 15 26 - - 0.0
19/11:30am 7.1 1.3 6.4 95 0.3 WNW 26 50 14 27 - - 0.0
19/11:12am 7.2 1.1 6.5 95 0.3 WNW 28 46 15 25 - - 0.0
19/11:00am 7.3 2.9 6.6 95 0.3 W 19 35 10 19 - - 0.0
19/10:30am 8.1 1.2 6.6 90 0.7 WNW 32 57 17 31 - - 0.0
19/10:02am 7.7 1.4 5.8 88 0.9 WNW 28 52 15 28 - - 0.0
19/10:00am 7.8 1.9 5.9 88 0.9 WNW 26 43 14 23 - - 0.0
19/09:30am 7.7 0.4 5.5 86 1.0 WNW 33 56 18 30 - - 0.0
19/09:00am 7.8 0.3 6.3 90 0.7 WNW 35 61 19 33 - - 0.0
19/08:30am 7.5 0.5 6.0 90 0.7 WNW 32 61 17 33 - - 0.0
19/08:00am 7.5 0.5 6.1 91 0.7 WNW 32 54 17 29 - - 0.0
19/07:38am 7.8 1.7 6.6 92 0.6 W 28 46 15 25 - - 0.0
19/07:30am 7.8 0.7 6.6 92 0.6 WNW 33 50 18 27 - - 0.0
19/07:00am 8.1 0.8 7.2 94 0.4 WNW 35 65 19 35 - - 0.0
19/06:30am 8.6 -0.3 7.5 93 0.5 WNW 44 67 24 36 - - 0.0
19/06:26am 8.6 0.7 7.7 94 0.4 WNW 39 67 21 36 - - 0.0
19/06:04am 8.8 2.9 7.4 91 0.7 WNW 28 46 15 25 - - 0.0
19/06:00am 8.8 2.9 7.4 91 0.7 WNW 28 41 15 22 - - 0.0
19/05:30am 8.8 2.4 7.1 89 0.8 W 30 48 16 26 - - 0.0
19/05:06am 9.1 3.0 6.7 85 1.2 W 28 46 15 25 - - 0.0
19/05:00am 9.2 4.2 6.6 84 1.3 WNW 22 39 12 21 - - 0.0
19/04:30am 9.6 5.0 5.8 77 1.8 W 19 30 10 16 - - 0.0
19/04:00am 10.5 6.2 5.1 69 2.6 WSW 17 30 9 16 - - 0.0
19/03:30am 11.4 3.9 4.6 63 3.2 WNW 33 57 18 31 - - 0.0
19/03:00am 12.1 4.6 4.3 59 3.7 W 33 59 18 32 - - 0.0
19/02:36am 12.5 5.3 3.2 53 4.3 WNW 30 54 16 29 - - 0.0
19/02:30am 12.6 5.0 3.0 52 4.4 WNW 32 48 17 26 - - 0.0
19/02:25am 12.7 6.0 3.4 53 4.4 WNW 28 48 15 26 - - 0.0
19/02:00am 12.5 6.5 3.2 53 4.3 NW 24 37 13 20 - - 0.0
19/01:30am 12.5 5.8 3.7 55 4.1 NW 28 52 15 28 - - 0.0
19/01:00am 12.3 4.8 3.3 54 4.2 WNW 32 57 17 31 - - 0.0
19/12:30am 11.9 4.4 3.7 57 3.8 NW 32 56 17 30 - - 0.0
19/12:24am 11.9 4.4 3.7 57 3.8 NW 32 56 17 30 - - 0.0
19/12:22am 11.8 3.5 4.1 59 3.6 WNW 37 57 20 31 - - 0.0
19/12:21am 11.8 2.7 3.8 58 3.7 W 41 57 22 31 - - 0.0
19/12:14am 12.0 4.9 3.5 56 4.0 NW 30 48 16 26 - - 0.0
19/12:00am 11.8 5.6 4.5 61 3.5 NNW 26 37 14 20 - - 0.0
 
Date/Time
EDT
Temp
°C
App
Temp
°C
Dew
Point
Rel
Hum
%
Delta-T
°C
Wind Press
QNH
hPa
Press
MSL
hPa
Rain
since 9 am
mm
Dir
 
Spd
km/h
Gust
km/h
Spd
kts
Gust
kts
18/11:30pm 11.3 5.6 4.7 64 3.1 NNW 24 35 13 19 - - 0.0

Other Formats:

Comma delimited format used in spreadsheet applications
http://www.bom.gov.au/fwo/IDT60801/IDT60801.94977.axf

JavaScript Object Notation format (JSON) in row-major order
http://www.bom.gov.au/fwo/IDT60801/IDT60801.94977.json